sensor_id;sensor_type;location;lat;lon;timestamp;P1;P2;P0
69416;PMS5003;61386;54.994;73.448;2022-07-01T00:01:38;0.00;0.00;0.00
69416;PMS5003;61386;54.994;73.448;2022-07-01T00:04:05;0.00;0.00;0.00
69416;PMS5003;61386;54.994;73.448;2022-07-01T00:06:32;0.00;0.00;0.00
69416;PMS5003;61386;54.994;73.448;2022-07-01T00:09:03;0.25;0.00;0.00
69416;PMS5003;61386;54.994;73.448;2022-07-01T00:11:32;0.00;0.00;0.00
69416;PMS5003;61386;54.994;73.448;2022-07-01T00:13:58;1.00;0.00;0.00
69416;PMS5003;61386;54.994;73.448;2022-07-01T00:16:24;1.00;0.00;0.00
69416;PMS5003;61386;54.994;73.448;2022-07-01T00:18:50;0.00;0.00;0.00
69416;PMS5003;61386;54.994;73.448;2022-07-01T00:21:16;1.00;0.75;0.00
69416;PMS5003;61386;54.994;73.448;2022-07-01T00:23:42;0.00;0.00;0.00
69416;PMS5003;61386;54.994;73.448;2022-07-01T00:26:08;1.50;1.00;0.00
69416;PMS5003;61386;54.994;73.448;2022-07-01T00:28:44;1.00;1.00;0.00
69416;PMS5003;61386;54.994;73.448;2022-07-01T00:31:10;1.50;1.50;0.00
69416;PMS5003;61386;54.994;73.448;2022-07-01T00:33:36;0.00;0.00;0.00
69416;PMS5003;61386;54.994;73.448;2022-07-01T00:36:02;0.00;0.00;0.00
69416;PMS5003;61386;54.994;73.448;2022-07-01T00:38:28;0.00;0.00;0.00
69416;PMS5003;61386;54.994;73.448;2022-07-01T00:41:04;0.00;0.00;0.00
69416;PMS5003;61386;54.994;73.448;2022-07-01T00:43:34;2.00;0.25;0.00
69416;PMS5003;61386;54.994;73.448;2022-07-01T00:46:00;1.00;0.00;0.00
69416;PMS5003;61386;54.994;73.448;2022-07-01T00:48:35;1.00;0.00;0.00
69416;PMS5003;61386;54.994;73.448;2022-07-01T00:51:02;0.00;0.00;0.00
69416;PMS5003;61386;54.994;73.448;2022-07-01T00:53:28;0.50;0.00;0.00
69416;PMS5003;61386;54.994;73.448;2022-07-01T00:55:55;1.00;1.00;0.00
69416;PMS5003;61386;54.994;73.448;2022-07-01T00:58:21;1.00;1.00;0.00
69416;PMS5003;61386;54.994;73.448;2022-07-01T01:00:47;2.00;1.75;0.00
69416;PMS5003;61386;54.994;73.448;2022-07-01T01:03:13;0.00;0.00;0.00
69416;PMS5003;61386;54.994;73.448;2022-07-01T01:05:46;1.00;1.00;0.00
69416;PMS5003;61386;54.994;73.448;2022-07-01T01:08:19;0.25;0.25;0.00
69416;PMS5003;61386;54.994;73.448;2022-07-01T01:10:50;3.00;1.00;0.00
69416;PMS5003;61386;54.994;73.448;2022-07-01T01:13:16;2.00;2.00;0.00
69416;PMS5003;61386;54.994;73.448;2022-07-01T01:15:49;3.00;2.75;0.00
69416;PMS5003;61386;54.994;73.448;2022-07-01T01:18:20;2.25;1.25;0.00
69416;PMS5003;61386;54.994;73.448;2022-07-01T01:20:46;2.00;1.50;0.00
69416;PMS5003;61386;54.994;73.448;2022-07-01T01:23:12;2.00;2.00;0.00
69416;PMS5003;61386;54.994;73.448;2022-07-01T01:25:37;2.00;1.00;0.00
69416;PMS5003;61386;54.994;73.448;2022-07-01T01:28:04;2.00;1.00;0.00
69416;PMS5003;61386;54.994;73.448;2022-07-01T01:30:30;2.00;2.00;0.00
69416;PMS5003;61386;54.994;73.448;2022-07-01T01:32:56;1.50;0.00;0.00
69416;PMS5003;61386;54.994;73.448;2022-07-01T01:35:22;1.00;0.00;0.00
69416;PMS5003;61386;54.994;73.448;2022-07-01T01:37:48;1.00;0.00;0.00
69416;PMS5003;61386;54.994;73.448;2022-07-01T01:40:14;2.00;0.00;0.00
69416;PMS5003;61386;54.994;73.448;2022-07-01T01:42:50;1.25;0.00;0.00
69416;PMS5003;61386;54.994;73.448;2022-07-01T01:45:18;3.00;2.00;0.00
69416;PMS5003;61386;54.994;73.448;2022-07-01T01:47:44;0.00;0.00;0.00
69416;PMS5003;61386;54.994;73.448;2022-07-01T01:50:10;1.00;0.00;0.00
69416;PMS5003;61386;54.994;73.448;2022-07-01T01:52:38;1.75;0.75;0.00
69416;PMS5003;61386;54.994;73.448;2022-07-01T01:55:07;2.00;1.00;0.00
69416;PMS5003;61386;54.994;73.448;2022-07-01T01:57:33;1.00;0.00;0.00
69416;PMS5003;61386;54.994;73.448;2022-07-01T01:59:59;2.00;2.00;0.00
69416;PMS5003;61386;54.994;73.448;2022-07-01T02:02:25;2.00;2.00;0.00
69416;PMS5003;61386;54.994;73.448;2022-07-01T02:04:51;3.00;2.00;0.00
69416;PMS5003;61386;54.994;73.448;2022-07-01T02:07:17;1.75;1.00;0.00
69416;PMS5003;61386;54.994;73.448;2022-07-01T02:09:43;1.00;1.00;0.00
69416;PMS5003;61386;54.994;73.448;2022-07-01T02:12:14;2.00;2.00;0.00
69416;PMS5003;61386;54.994;73.448;2022-07-01T02:14:40;1.00;0.00;0.00
69416;PMS5003;61386;54.994;73.448;2022-07-01T02:17:06;2.00;2.00;0.00
69416;PMS5003;61386;54.994;73.448;2022-07-01T02:19:32;1.00;1.00;0.00
69416;PMS5003;61386;54.994;73.448;2022-07-01T02:21:58;1.00;1.00;0.00
69416;PMS5003;61386;54.994;73.448;2022-07-01T02:24:24;0.00;0.00;0.00
69416;PMS5003;61386;54.994;73.448;2022-07-01T02:26:55;1.75;0.00;0.00
69416;PMS5003;61386;54.994;73.448;2022-07-01T02:29:22;1.00;0.00;0.00
69416;PMS5003;61386;54.994;73.448;2022-07-01T02:31:58;1.00;0.00;0.00
69416;PMS5003;61386;54.994;73.448;2022-07-01T02:34:24;0.00;0.00;0.00
69416;PMS5003;61386;54.994;73.448;2022-07-01T02:36:51;0.00;0.00;0.00
69416;PMS5003;61386;54.994;73.448;2022-07-01T02:39:21;1.00;1.00;0.00
69416;PMS5003;61386;54.994;73.448;2022-07-01T02:41:47;0.50;0.50;0.00
69416;PMS5003;61386;54.994;73.448;2022-07-01T02:44:41;1.75;0.00;0.00
69416;PMS5003;61386;54.994;73.448;2022-07-01T02:47:08;1.00;0.00;0.00
69416;PMS5003;61386;54.994;73.448;2022-07-01T02:49:44;2.00;2.00;0.00
69416;PMS5003;61386;54.994;73.448;2022-07-01T02:52:10;1.00;1.00;0.00
69416;PMS5003;61386;54.994;73.448;2022-07-01T02:54:37;0.50;0.50;0.00
69416;PMS5003;61386;54.994;73.448;2022-07-01T02:57:13;0.75;0.75;0.00
69416;PMS5003;61386;54.994;73.448;2022-07-01T02:59:44;2.00;1.00;0.00
69416;PMS5003;61386;54.994;73.448;2022-07-01T03:02:10;1.00;1.00;0.00
69416;PMS5003;61386;54.994;73.448;2022-07-01T03:04:36;0.00;0.00;0.00
69416;PMS5003;61386;54.994;73.448;2022-07-01T03:07:06;2.25;0.00;0.00
69416;PMS5003;61386;54.994;73.448;2022-07-01T03:09:32;1.00;1.00;0.00
69416;PMS5003;61386;54.994;73.448;2022-07-01T03:11:59;2.00;2.00;0.00
69416;PMS5003;61386;54.994;73.448;2022-07-01T03:14:45;2.00;1.50;0.00
69416;PMS5003;61386;54.994;73.448;2022-07-01T03:17:18;3.00;3.00;0.00
69416;PMS5003;61386;54.994;73.448;2022-07-01T03:19:45;2.75;2.75;0.00
69416;PMS5003;61386;54.994;73.448;2022-07-01T03:22:12;4.00;3.00;0.00
69416;PMS5003;61386;54.994;73.448;2022-07-01T03:24:38;6.00;6.00;0.00
69416;PMS5003;61386;54.994;73.448;2022-07-01T03:27:04;7.50;6.00;1.00
69416;PMS5003;61386;54.994;73.448;2022-07-01T03:29:30;4.00;2.50;1.00
69416;PMS5003;61386;54.994;73.448;2022-07-01T03:31:56;5.25;5.25;3.00
69416;PMS5003;61386;54.994;73.448;2022-07-01T03:34:25;7.00;6.75;3.00
69416;PMS5003;61386;54.994;73.448;2022-07-01T03:36:54;2.75;2.75;1.00
69416;PMS5003;61386;54.994;73.448;2022-07-01T03:39:21;3.00;1.00;0.00
69416;PMS5003;61386;54.994;73.448;2022-07-01T03:41:47;3.00;1.00;0.00
69416;PMS5003;61386;54.994;73.448;2022-07-01T03:44:13;2.00;1.50;0.00
69416;PMS5003;61386;54.994;73.448;2022-07-01T03:46:39;1.00;0.00;0.00
69416;PMS5003;61386;54.994;73.448;2022-07-01T03:49:05;2.00;1.25;0.00
69416;PMS5003;61386;54.994;73.448;2022-07-01T03:51:31;3.00;2.00;0.00
69416;PMS5003;61386;54.994;73.448;2022-07-01T03:54:07;2.00;2.00;0.00
69416;PMS5003;61386;54.994;73.448;2022-07-01T03:56:51;1.00;1.00;0.00
69416;PMS5003;61386;54.994;73.448;2022-07-01T03:59:17;1.25;1.00;0.00
69416;PMS5003;61386;54.994;73.448;2022-07-01T04:01:43;1.75;1.00;0.00
69416;PMS5003;61386;54.994;73.448;2022-07-01T04:04:09;2.00;0.00;0.00
69416;PMS5003;61386;54.994;73.448;2022-07-01T04:06:35;2.00;1.00;0.00
69416;PMS5003;61386;54.994;73.448;2022-07-01T04:09:01;1.00;1.00;0.00
69416;PMS5003;61386;54.994;73.448;2022-07-01T04:11:28;2.50;1.50;0.00
69416;PMS5003;61386;54.994;73.448;2022-07-01T04:13:54;4.00;2.00;0.00
69416;PMS5003;61386;54.994;73.448;2022-07-01T04:16:20;3.75;2.00;0.00
69416;PMS5003;61386;54.994;73.448;2022-07-01T04:18:46;4.00;3.00;0.00
69416;PMS5003;61386;54.994;73.448;2022-07-01T04:21:12;2.50;2.50;0.00
69416;PMS5003;61386;54.994;73.448;2022-07-01T04:24:00;3.00;3.00;0.00
69416;PMS5003;61386;54.994;73.448;2022-07-01T04:26:26;1.75;1.75;0.00
69416;PMS5003;61386;54.994;73.448;2022-07-01T04:29:02;3.00;2.00;0.00
69416;PMS5003;61386;54.994;73.448;2022-07-01T04:31:28;6.00;5.25;0.00
69416;PMS5003;61386;54.994;73.448;2022-07-01T04:33:58;6.00;5.50;0.00
69416;PMS5003;61386;54.994;73.448;2022-07-01T04:36:24;4.00;3.50;0.00
69416;PMS5003;61386;54.994;73.448;2022-07-01T04:38:50;2.00;2.00;0.00
69416;PMS5003;61386;54.994;73.448;2022-07-01T04:41:16;4.00;4.00;0.00
69416;PMS5003;61386;54.994;73.448;2022-07-01T04:44:06;4.00;4.00;0.00
69416;PMS5003;61386;54.994;73.448;2022-07-01T04:46:33;4.25;3.25;0.00
69416;PMS5003;61386;54.994;73.448;2022-07-01T04:48:59;4.75;3.00;0.00
69416;PMS5003;61386;54.994;73.448;2022-07-01T04:51:25;3.25;2.75;0.00
69416;PMS5003;61386;54.994;73.448;2022-07-01T04:53:51;4.00;4.00;0.00
69416;PMS5003;61386;54.994;73.448;2022-07-01T04:56:17;5.00;4.50;0.00
69416;PMS5003;61386;54.994;73.448;2022-07-01T04:58:43;6.00;5.00;0.00
69416;PMS5003;61386;54.994;73.448;2022-07-01T05:01:19;3.25;3.25;0.00
69416;PMS5003;61386;54.994;73.448;2022-07-01T05:03:45;3.00;3.00;0.00
69416;PMS5003;61386;54.994;73.448;2022-07-01T05:06:15;5.75;5.50;0.00
69416;PMS5003;61386;54.994;73.448;2022-07-01T05:08:41;4.00;4.00;1.00
69416;PMS5003;61386;54.994;73.448;2022-07-01T05:11:07;4.75;4.25;1.00
69416;PMS5003;61386;54.994;73.448;2022-07-01T05:13:34;4.00;4.00;0.00
69416;PMS5003;61386;54.994;73.448;2022-07-01T05:16:05;3.00;3.00;0.00
69416;PMS5003;61386;54.994;73.448;2022-07-01T05:18:34;3.00;3.00;0.00
69416;PMS5003;61386;54.994;73.448;2022-07-01T05:21:18;4.00;2.75;1.00
69416;PMS5003;61386;54.994;73.448;2022-07-01T05:24:23;3.25;3.00;1.00
69416;PMS5003;61386;54.994;73.448;2022-07-01T05:26:50;2.00;2.00;0.00
69416;PMS5003;61386;54.994;73.448;2022-07-01T05:29:16;4.00;3.00;0.00
69416;PMS5003;61386;54.994;73.448;2022-07-01T05:31:42;6.00;5.00;0.75
69416;PMS5003;61386;54.994;73.448;2022-07-01T05:34:11;5.00;3.00;1.00
69416;PMS5003;61386;54.994;73.448;2022-07-01T05:36:37;4.00;3.00;1.75
69416;PMS5003;61386;54.994;73.448;2022-07-01T05:39:03;4.00;3.75;1.25
69416;PMS5003;61386;54.994;73.448;2022-07-01T05:41:30;5.00;5.00;1.00
69416;PMS5003;61386;54.994;73.448;2022-07-01T05:43:57;7.25;5.00;1.00
69416;PMS5003;61386;54.994;73.448;2022-07-01T05:46:28;8.00;5.00;2.25
69416;PMS5003;61386;54.994;73.448;2022-07-01T05:48:54;10.00;9.25;3.75
69416;PMS5003;61386;54.994;73.448;2022-07-01T05:51:20;6.50;5.00;2.00
69416;PMS5003;61386;54.994;73.448;2022-07-01T05:53:51;5.00;4.00;1.00
69416;PMS5003;61386;54.994;73.448;2022-07-01T05:56:23;6.00;5.00;1.00
69416;PMS5003;61386;54.994;73.448;2022-07-01T05:58:51;5.00;5.00;1.00
69416;PMS5003;61386;54.994;73.448;2022-07-01T06:01:17;6.00;5.00;0.50
69416;PMS5003;61386;54.994;73.448;2022-07-01T06:03:43;5.00;4.00;1.00
69416;PMS5003;61386;54.994;73.448;2022-07-01T06:06:09;5.50;4.50;1.00
69416;PMS5003;61386;54.994;73.448;2022-07-01T06:08:35;5.00;5.00;1.00
69416;PMS5003;61386;54.994;73.448;2022-07-01T06:11:01;5.25;5.00;2.00
69416;PMS5003;61386;54.994;73.448;2022-07-01T06:13:27;6.00;6.00;2.00
69416;PMS5003;61386;54.994;73.448;2022-07-01T06:16:00;11.00;11.00;5.00
69416;PMS5003;61386;54.994;73.448;2022-07-01T06:18:26;8.25;7.25;3.00
69416;PMS5003;61386;54.994;73.448;2022-07-01T06:20:52;8.75;8.00;4.00
69416;PMS5003;61386;54.994;73.448;2022-07-01T06:23:18;7.00;7.00;2.00
69416;PMS5003;61386;54.994;73.448;2022-07-01T06:25:44;9.75;9.75;4.00
69416;PMS5003;61386;54.994;73.448;2022-07-01T06:28:13;7.00;6.50;3.00
69416;PMS5003;61386;54.994;73.448;2022-07-01T06:30:50;6.75;6.75;2.25
69416;PMS5003;61386;54.994;73.448;2022-07-01T06:33:20;6.75;5.00;2.00
69416;PMS5003;61386;54.994;73.448;2022-07-01T06:35:46;7.00;7.00;3.00
69416;PMS5003;61386;54.994;73.448;2022-07-01T06:38:12;6.00;6.00;2.00
69416;PMS5003;61386;54.994;73.448;2022-07-01T06:40:38;6.00;5.50;3.00
69416;PMS5003;61386;54.994;73.448;2022-07-01T06:43:04;5.00;5.00;3.00
69416;PMS5003;61386;54.994;73.448;2022-07-01T06:45:30;4.00;4.00;2.00
69416;PMS5003;61386;54.994;73.448;2022-07-01T06:48:01;5.00;4.00;2.00
69416;PMS5003;61386;54.994;73.448;2022-07-01T06:50:29;6.50;6.25;1.00
69416;PMS5003;61386;54.994;73.448;2022-07-01T06:52:57;4.50;4.25;1.00
69416;PMS5003;61386;54.994;73.448;2022-07-01T06:55:23;6.25;6.00;1.25
69416;PMS5003;61386;54.994;73.448;2022-07-01T06:57:49;7.00;7.00;2.25
69416;PMS5003;61386;54.994;73.448;2022-07-01T07:00:15;5.00;5.00;2.00
69416;PMS5003;61386;54.994;73.448;2022-07-01T07:02:41;10.00;8.00;3.00
69416;PMS5003;61386;54.994;73.448;2022-07-01T07:05:08;6.25;5.25;1.00
69416;PMS5003;61386;54.994;73.448;2022-07-01T07:07:36;5.00;5.00;2.00
69416;PMS5003;61386;54.994;73.448;2022-07-01T07:10:14;5.75;4.75;1.00
69416;PMS5003;61386;54.994;73.448;2022-07-01T07:12:41;4.75;4.00;1.00
69416;PMS5003;61386;54.994;73.448;2022-07-01T07:15:07;4.00;4.00;2.00
69416;PMS5003;61386;54.994;73.448;2022-07-01T07:17:33;6.00;6.00;2.00
69416;PMS5003;61386;54.994;73.448;2022-07-01T07:19:59;6.00;6.00;3.00
69416;PMS5003;61386;54.994;73.448;2022-07-01T07:22:25;8.00;8.00;3.00
69416;PMS5003;61386;54.994;73.448;2022-07-01T07:24:51;6.00;6.00;2.00
69416;PMS5003;61386;54.994;73.448;2022-07-01T07:27:28;6.25;6.00;3.25
69416;PMS5003;61386;54.994;73.448;2022-07-01T07:30:05;8.00;8.00;5.00
69416;PMS5003;61386;54.994;73.448;2022-07-01T07:32:34;10.00;9.00;4.00
69416;PMS5003;61386;54.994;73.448;2022-07-01T07:35:00;9.00;8.00;4.00
69416;PMS5003;61386;54.994;73.448;2022-07-01T07:37:26;7.00;6.50;2.00
69416;PMS5003;61386;54.994;73.448;2022-07-01T07:39:53;7.00;6.75;2.00
69416;PMS5003;61386;54.994;73.448;2022-07-01T07:42:19;5.00;5.00;1.00
69416;PMS5003;61386;54.994;73.448;2022-07-01T07:44:45;6.75;6.00;2.00
69416;PMS5003;61386;54.994;73.448;2022-07-01T07:47:11;8.75;7.25;4.00
69416;PMS5003;61386;54.994;73.448;2022-07-01T07:49:37;10.00;7.00;3.00
69416;PMS5003;61386;54.994;73.448;2022-07-01T07:52:12;8.00;8.00;3.00
69416;PMS5003;61386;54.994;73.448;2022-07-01T07:54:43;7.00;6.00;2.00
69416;PMS5003;61386;54.994;73.448;2022-07-01T07:57:09;7.00;6.50;2.00
69416;PMS5003;61386;54.994;73.448;2022-07-01T07:59:35;7.50;7.00;2.00
69416;PMS5003;61386;54.994;73.448;2022-07-01T08:02:01;8.00;7.50;3.00
69416;PMS5003;61386;54.994;73.448;2022-07-01T08:04:27;10.00;9.00;4.50
69416;PMS5003;61386;54.994;73.448;2022-07-01T08:06:53;8.50;6.75;3.50
69416;PMS5003;61386;54.994;73.448;2022-07-01T08:09:19;10.00;7.25;4.00
69416;PMS5003;61386;54.994;73.448;2022-07-01T08:11:45;8.00;7.25;4.00
69416;PMS5003;61386;54.994;73.448;2022-07-01T08:14:11;7.75;7.75;4.00
69416;PMS5003;61386;54.994;73.448;2022-07-01T08:16:42;8.50;8.50;3.00
69416;PMS5003;61386;54.994;73.448;2022-07-01T08:19:08;10.00;8.00;4.75
69416;PMS5003;61386;54.994;73.448;2022-07-01T08:21:34;12.00;11.00;5.50
69416;PMS5003;61386;54.994;73.448;2022-07-01T08:24:00;9.00;7.50;2.00
69416;PMS5003;61386;54.994;73.448;2022-07-01T08:26:26;9.50;9.25;5.25
69416;PMS5003;61386;54.994;73.448;2022-07-01T08:28:52;12.50;10.00;4.00
69416;PMS5003;61386;54.994;73.448;2022-07-01T08:31:24;8.00;6.25;4.00
69416;PMS5003;61386;54.994;73.448;2022-07-01T08:33:52;9.00;8.00;3.00
69416;PMS5003;61386;54.994;73.448;2022-07-01T08:36:18;9.00;9.00;4.25
69416;PMS5003;61386;54.994;73.448;2022-07-01T08:38:44;9.00;9.00;4.00
69416;PMS5003;61386;54.994;73.448;2022-07-01T08:41:10;8.00;6.00;3.00
69416;PMS5003;61386;54.994;73.448;2022-07-01T08:43:36;6.75;6.75;4.00
69416;PMS5003;61386;54.994;73.448;2022-07-01T08:46:03;7.00;7.00;4.00
69416;PMS5003;61386;54.994;73.448;2022-07-01T08:48:30;8.00;8.00;3.00
69416;PMS5003;61386;54.994;73.448;2022-07-01T08:50:56;11.25;11.25;5.50
69416;PMS5003;61386;54.994;73.448;2022-07-01T08:53:22;11.00;10.00;5.00
69416;PMS5003;61386;54.994;73.448;2022-07-01T08:55:48;19.00;18.75;9.00
69416;PMS5003;61386;54.994;73.448;2022-07-01T08:58:33;13.75;13.25;4.50
69416;PMS5003;61386;54.994;73.448;2022-07-01T09:01:15;9.00;9.00;4.00
69416;PMS5003;61386;54.994;73.448;2022-07-01T09:03:45;8.75;8.75;4.00
69416;PMS5003;61386;54.994;73.448;2022-07-01T09:06:13;9.00;9.00;4.00
69416;PMS5003;61386;54.994;73.448;2022-07-01T09:08:40;8.50;8.00;4.25
69416;PMS5003;61386;54.994;73.448;2022-07-01T09:11:12;9.00;9.00;3.00
69416;PMS5003;61386;54.994;73.448;2022-07-01T09:13:40;9.00;9.00;5.00
69416;PMS5003;61386;54.994;73.448;2022-07-01T09:16:16;8.00;5.50;3.00
69416;PMS5003;61386;54.994;73.448;2022-07-01T09:19:02;8.00;6.25;4.00
69416;PMS5003;61386;54.994;73.448;2022-07-01T09:21:31;9.25;8.25;4.00
69416;PMS5003;61386;54.994;73.448;2022-07-01T09:24:04;10.00;9.00;5.00
69416;PMS5003;61386;54.994;73.448;2022-07-01T09:26:31;11.25;11.00;5.00
69416;PMS5003;61386;54.994;73.448;2022-07-01T09:28:57;11.00;10.00;4.25
69416;PMS5003;61386;54.994;73.448;2022-07-01T09:31:34;11.00;11.00;6.00
69416;PMS5003;61386;54.994;73.448;2022-07-01T09:34:06;9.00;9.00;6.00
69416;PMS5003;61386;54.994;73.448;2022-07-01T09:36:38;11.75;10.00;6.00
69416;PMS5003;61386;54.994;73.448;2022-07-01T09:39:07;15.00;10.00;6.25
69416;PMS5003;61386;54.994;73.448;2022-07-01T09:41:36;13.50;12.00;5.00
69416;PMS5003;61386;54.994;73.448;2022-07-01T09:44:06;11.50;9.00;4.00
69416;PMS5003;61386;54.994;73.448;2022-07-01T09:46:32;13.75;11.50;7.00
69416;PMS5003;61386;54.994;73.448;2022-07-01T09:49:03;12.00;9.50;5.75
69416;PMS5003;61386;54.994;73.448;2022-07-01T09:51:29;13.00;12.00;6.00
69416;PMS5003;61386;54.994;73.448;2022-07-01T09:53:55;11.00;9.00;5.00
69416;PMS5003;61386;54.994;73.448;2022-07-01T09:56:24;9.50;8.50;4.50
69416;PMS5003;61386;54.994;73.448;2022-07-01T09:58:50;13.00;12.00;6.00
69416;PMS5003;61386;54.994;73.448;2022-07-01T10:01:19;16.00;15.00;6.75
69416;PMS5003;61386;54.994;73.448;2022-07-01T10:03:55;15.50;15.00;7.00
69416;PMS5003;61386;54.994;73.448;2022-07-01T10:06:40;18.00;18.00;7.25
69416;PMS5003;61386;54.994;73.448;2022-07-01T10:14:37;25.00;23.00;9.00
69416;PMS5003;61386;54.994;73.448;2022-07-01T10:17:03;21.00;19.00;9.00
69416;PMS5003;61386;54.994;73.448;2022-07-01T10:19:30;20.00;18.75;9.75
69416;PMS5003;61386;54.994;73.448;2022-07-01T10:21:59;18.25;18.25;9.00
69416;PMS5003;61386;54.994;73.448;2022-07-01T10:24:26;18.00;18.00;8.00
69416;PMS5003;61386;54.994;73.448;2022-07-01T10:26:57;19.00;18.00;8.75
69416;PMS5003;61386;54.994;73.448;2022-07-01T10:29:31;23.00;21.75;8.75
69416;PMS5003;61386;54.994;73.448;2022-07-01T10:32:10;22.00;21.00;8.25
69416;PMS5003;61386;54.994;73.448;2022-07-01T10:35:04;21.00;19.75;8.75
69416;PMS5003;61386;54.994;73.448;2022-07-01T10:37:35;19.00;19.00;8.00
69416;PMS5003;61386;54.994;73.448;2022-07-01T10:40:21;19.00;18.00;8.00
69416;PMS5003;61386;54.994;73.448;2022-07-01T10:43:05;22.50;19.75;11.75
69416;PMS5003;61386;54.994;73.448;2022-07-01T10:45:41;25.75;21.75;12.00
69416;PMS5003;61386;54.994;73.448;2022-07-01T10:48:18;26.25;24.50;14.00
69416;PMS5003;61386;54.994;73.448;2022-07-01T10:50:45;28.50;26.00;13.00
69416;PMS5003;61386;54.994;73.448;2022-07-01T10:53:11;27.75;25.00;12.00
69416;PMS5003;61386;54.994;73.448;2022-07-01T10:55:38;25.50;24.25;14.00
69416;PMS5003;61386;54.994;73.448;2022-07-01T10:58:15;27.75;27.00;14.75
69416;PMS5003;61386;54.994;73.448;2022-07-01T11:00:50;25.00;23.75;14.00
69416;PMS5003;61386;54.994;73.448;2022-07-01T11:03:21;26.25;24.50;14.00
69416;PMS5003;61386;54.994;73.448;2022-07-01T11:05:53;29.00;26.50;15.00
69416;PMS5003;61386;54.994;73.448;2022-07-01T11:08:21;29.00;26.50;15.00
69416;PMS5003;61386;54.994;73.448;2022-07-01T11:10:58;27.50;25.50;15.00
69416;PMS5003;61386;54.994;73.448;2022-07-01T11:13:25;29.00;26.00;15.00
69416;PMS5003;61386;54.994;73.448;2022-07-01T11:15:51;27.00;25.00;16.00
69416;PMS5003;61386;54.994;73.448;2022-07-01T11:18:17;26.00;26.00;15.50
69416;PMS5003;61386;54.994;73.448;2022-07-01T11:20:44;23.00;22.00;12.00
69416;PMS5003;61386;54.994;73.448;2022-07-01T11:23:11;23.25;23.00;13.00
69416;PMS5003;61386;54.994;73.448;2022-07-01T11:25:37;23.50;23.00;12.00
69416;PMS5003;61386;54.994;73.448;2022-07-01T11:28:03;23.00;23.00;9.00
69416;PMS5003;61386;54.994;73.448;2022-07-01T11:30:29;23.75;22.25;11.25
69416;PMS5003;61386;54.994;73.448;2022-07-01T11:32:56;25.50;24.50;10.75
69416;PMS5003;61386;54.994;73.448;2022-07-01T11:35:32;24.25;22.50;12.00
69416;PMS5003;61386;54.994;73.448;2022-07-01T11:38:19;23.25;21.00;13.00
69416;PMS5003;61386;54.994;73.448;2022-07-01T11:41:04;26.00;23.50;14.00
69416;PMS5003;61386;54.994;73.448;2022-07-01T11:43:34;27.75;24.25;14.75
69416;PMS5003;61386;54.994;73.448;2022-07-01T11:46:02;25.00;22.50;13.00
69416;PMS5003;61386;54.994;73.448;2022-07-01T11:48:38;24.00;23.75;12.00
69416;PMS5003;61386;54.994;73.448;2022-07-01T11:51:06;28.00;24.75;12.00
69416;PMS5003;61386;54.994;73.448;2022-07-01T11:53:38;31.00;26.50;15.50
69416;PMS5003;61386;54.994;73.448;2022-07-01T11:56:04;31.25;28.00;16.00
69416;PMS5003;61386;54.994;73.448;2022-07-01T11:58:42;32.00;29.25;16.50
69416;PMS5003;61386;54.994;73.448;2022-07-01T12:01:09;32.00;29.00;18.00
69416;PMS5003;61386;54.994;73.448;2022-07-01T12:03:36;36.25;30.00;19.00
69416;PMS5003;61386;54.994;73.448;2022-07-01T12:06:03;36.00;30.00;19.00
69416;PMS5003;61386;54.994;73.448;2022-07-01T12:08:34;33.25;29.75;19.00
69416;PMS5003;61386;54.994;73.448;2022-07-01T12:11:00;33.75;30.00;19.00
69416;PMS5003;61386;54.994;73.448;2022-07-01T12:13:26;34.00;30.00;19.00
69416;PMS5003;61386;54.994;73.448;2022-07-01T12:15:53;34.25;31.00;18.50
69416;PMS5003;61386;54.994;73.448;2022-07-01T12:18:19;33.50;30.00;18.50
69416;PMS5003;61386;54.994;73.448;2022-07-01T12:20:54;30.00;28.00;18.50
69416;PMS5003;61386;54.994;73.448;2022-07-01T12:23:20;27.75;26.75;17.00
69416;PMS5003;61386;54.994;73.448;2022-07-01T12:25:52;31.75;28.25;17.50
69416;PMS5003;61386;54.994;73.448;2022-07-01T12:31:02;32.50;30.00;18.00
69416;PMS5003;61386;54.994;73.448;2022-07-01T12:33:34;32.50;30.00;17.50
69416;PMS5003;61386;54.994;73.448;2022-07-01T12:36:04;31.50;29.00;18.00
69416;PMS5003;61386;54.994;73.448;2022-07-01T12:38:30;34.25;28.00;18.00
69416;PMS5003;61386;54.994;73.448;2022-07-01T12:40:56;35.75;30.75;18.00
69416;PMS5003;61386;54.994;73.448;2022-07-01T12:43:23;34.00;29.00;18.50
69416;PMS5003;61386;54.994;73.448;2022-07-01T12:45:50;34.00;30.50;17.00
69416;PMS5003;61386;54.994;73.448;2022-07-01T12:48:16;34.00;30.00;17.00
69416;PMS5003;61386;54.994;73.448;2022-07-01T12:50:42;34.00;30.00;17.00
69416;PMS5003;61386;54.994;73.448;2022-07-01T12:53:12;34.50;30.00;18.50
69416;PMS5003;61386;54.994;73.448;2022-07-01T12:55:44;35.00;30.00;17.25
69416;PMS5003;61386;54.994;73.448;2022-07-01T12:58:11;31.25;28.50;17.50
69416;PMS5003;61386;54.994;73.448;2022-07-01T13:00:38;25.50;25.00;16.00
69416;PMS5003;61386;54.994;73.448;2022-07-01T13:03:04;24.00;24.00;14.50
69416;PMS5003;61386;54.994;73.448;2022-07-01T13:05:31;26.00;24.50;15.00
69416;PMS5003;61386;54.994;73.448;2022-07-01T13:08:08;27.00;25.25;15.00
69416;PMS5003;61386;54.994;73.448;2022-07-01T13:10:35;23.00;22.00;12.00
69416;PMS5003;61386;54.994;73.448;2022-07-01T13:13:01;24.00;20.00;11.25
69416;PMS5003;61386;54.994;73.448;2022-07-01T13:15:28;23.25;22.00;12.00
69416;PMS5003;61386;54.994;73.448;2022-07-01T13:17:54;21.00;21.00;12.00
69416;PMS5003;61386;54.994;73.448;2022-07-01T13:20:20;23.75;23.50;12.25
69416;PMS5003;61386;54.994;73.448;2022-07-01T13:22:52;24.00;24.00;14.00
69416;PMS5003;61386;54.994;73.448;2022-07-01T13:25:19;22.75;21.75;12.00
69416;PMS5003;61386;54.994;73.448;2022-07-01T13:27:45;20.25;18.25;10.00
69416;PMS5003;61386;54.994;73.448;2022-07-01T13:30:12;21.25;19.50;12.00
69416;PMS5003;61386;54.994;73.448;2022-07-01T13:32:42;23.00;19.25;10.00
69416;PMS5003;61386;54.994;73.448;2022-07-01T13:35:13;23.00;21.00;11.00
69416;PMS5003;61386;54.994;73.448;2022-07-01T13:37:40;23.50;21.75;12.75
69416;PMS5003;61386;54.994;73.448;2022-07-01T13:40:06;23.25;20.25;13.00
69416;PMS5003;61386;54.994;73.448;2022-07-01T13:42:33;23.00;22.00;12.00
69416;PMS5003;61386;54.994;73.448;2022-07-01T13:45:09;21.50;19.25;11.00
69416;PMS5003;61386;54.994;73.448;2022-07-01T13:47:35;22.00;21.00;10.00
69416;PMS5003;61386;54.994;73.448;2022-07-01T13:50:01;25.00;23.00;11.75
69416;PMS5003;61386;54.994;73.448;2022-07-01T13:52:27;25.00;21.00;12.00
69416;PMS5003;61386;54.994;73.448;2022-07-01T13:54:57;26.00;22.00;12.00
69416;PMS5003;61386;54.994;73.448;2022-07-01T13:57:23;24.00;22.00;9.50
69416;PMS5003;61386;54.994;73.448;2022-07-01T13:59:49;23.00;21.75;10.00
69416;PMS5003;61386;54.994;73.448;2022-07-01T14:02:15;22.50;21.00;10.00
69416;PMS5003;61386;54.994;73.448;2022-07-01T14:04:44;24.75;23.75;11.50
69416;PMS5003;61386;54.994;73.448;2022-07-01T14:07:15;24.75;24.75;12.50
69416;PMS5003;61386;54.994;73.448;2022-07-01T14:09:41;31.00;28.25;16.00
69416;PMS5003;61386;54.994;73.448;2022-07-01T14:12:09;32.50;28.75;17.00
69416;PMS5003;61386;54.994;73.448;2022-07-01T14:14:35;36.75;30.00;18.00
69416;PMS5003;61386;54.994;73.448;2022-07-01T14:17:01;34.50;29.00;18.00